Sunwu, China
Current Conditions -  °F | °C
As of 1:00 AM on Tuesday 23 Dec 2014 (Local Time) from UHBB Reporting Station
Clear Clear  
Wind Chill: -19°   Ceiling: Unl
Heat Index: -8°   Visibility: 6mi
Dew Point: -13°   Wind: 4mph
Humidity: 77%   Direction: 270°W
Pressure: 29.91"   Gusts: NA
Location:  49.43°N, 127.35°E
Report Text: UHBB 221700Z 27002MPS CAVOK M22/M25 Q1013 NOSIG RMK QFE742/099036410250
Loading
Personal Weather Stations






























Interactive Weather Map New forecast layout! Learn more

10-Day Weather Forecast

Advertisements
Track Severe Weather on mobile